Time;durP1;ratioP1;P1;durP2;ratioP2;P2;SDS_P1;SDS_P2;PMS_P1;PMS_P2;Temp;Humidity;BMP_temperature;BMP_pressure;BME280_temperature;BME280_humidity;BME280_pressure;Samples;Min_cycle;Max_cycle;Signal;HPM_P1;HPM_P2
2021/04/25 00:01:13;;;;;;;6.25;2.70;;;8.50;65.70;;;;;;5034558;28;20119;-62
2021/04/25 00:03:39;;;;;;;5.07;2.85;;;8.30;66.40;;;;;;5035323;28;20385;-62
2021/04/25 00:06:05;;;;;;;4.32;2.30;;;8.30;66.50;;;;;;5035472;28;20025;-62
2021/04/25 00:08:32;;;;;;;6.05;2.58;;;8.20;66.70;;;;;;5035326;28;20394;-62
2021/04/25 00:10:58;;;;;;;6.07;2.60;;;8.20;66.60;;;;;;5035036;28;20030;-62
2021/04/25 00:13:24;;;;;;;5.50;2.80;;;8.20;66.80;;;;;;5035440;28;20100;-62
2021/04/25 00:15:50;;;;;;;7.50;2.80;;;8.20;66.50;;;;;;5035489;28;20049;-62
2021/04/25 00:18:15;;;;;;;7.47;2.58;;;8.20;66.70;;;;;;5034176;28;20549;-62
2021/04/25 00:20:42;;;;;;;8.52;3.15;;;8.10;67.00;;;;;;5036213;28;20028;-62
2021/04/25 00:23:07;;;;;;;5.80;2.88;;;8.10;67.50;;;;;;5033963;28;20128;-62
2021/04/25 00:25:33;;;;;;;5.47;2.72;;;8.00;67.70;;;;;;5034101;28;20061;-62
2021/04/25 00:27:59;;;;;;;5.03;2.80;;;8.00;67.60;;;;;;5035133;28;20029;-62
2021/04/25 00:30:24;;;;;;;6.97;2.95;;;8.00;68.10;;;;;;5035344;28;20079;-62
2021/04/25 00:32:50;;;;;;;4.30;2.53;;;7.90;67.90;;;;;;5035211;28;20082;-62
2021/04/25 00:35:17;;;;;;;9.57;3.10;;;7.90;68.00;;;;;;5034824;28;20030;-62
2021/04/25 00:37:44;;;;;;;7.88;3.10;;;7.90;68.40;;;;;;5035138;28;20021;-62
2021/04/25 00:40:12;;;;;;;3.83;2.40;;;7.80;68.50;;;;;;5035169;28;20028;-62
2021/04/25 00:42:38;;;;;;;5.82;2.85;;;7.70;68.70;;;;;;5034674;28;20393;-63
2021/04/25 00:45:07;;;;;;;8.20;3.00;;;7.70;69.10;;;;;;5032989;28;20017;-61
2021/04/25 00:47:33;;;;;;;7.18;2.97;;;7.60;69.20;;;;;;5034730;28;20498;-62
2021/04/25 00:49:59;;;;;;;7.43;3.15;;;7.60;69.60;;;;;;5035179;28;20059;-62
2021/04/25 00:52:26;;;;;;;7.97;3.40;;;7.70;70.30;;;;;;5033655;28;20076;-62
2021/04/25 00:54:52;;;;;;;7.00;3.13;;;7.60;69.80;;;;;;5033327;28;20331;-62
2021/04/25 00:57:20;;;;;;;9.52;3.40;;;7.50;70.40;;;;;;5050858;28;20135;-62
2021/04/25 00:59:46;;;;;;;8.30;3.42;;;7.50;70.60;;;;;;5033547;28;20034;-62
2021/04/25 01:02:12;;;;;;;7.32;3.30;;;7.50;71.00;;;;;;5034204;28;20034;-62
2021/04/25 01:04:38;;;;;;;4.50;3.05;;;7.40;71.70;;;;;;5033998;28;20087;-62
2021/04/25 01:07:04;;;;;;;7.97;3.33;;;7.40;71.70;;;;;;5035334;28;20037;-62
2021/04/25 01:09:30;;;;;;;10.32;3.63;;;7.40;72.00;;;;;;5035351;28;20364;-62
2021/04/25 01:11:56;;;;;;;5.97;4.00;;;7.30;72.40;;;;;;5034879;28;20156;-62
2021/04/25 01:14:22;;;;;;;8.32;3.72;;;7.40;72.50;;;;;;5034818;28;20021;-62
2021/04/25 01:16:49;;;;;;;7.65;4.03;;;7.30;72.80;;;;;;5034677;28;20025;-61
2021/04/25 01:19:15;;;;;;;5.18;3.60;;;7.30;73.20;;;;;;5034865;28;20017;-61
2021/04/25 01:21:41;;;;;;;6.53;3.42;;;7.20;73.60;;;;;;5034894;28;20069;-62
2021/04/25 01:24:07;;;;;;;5.72;3.42;;;7.20;74.20;;;;;;5033537;28;20125;-62
2021/04/25 01:26:32;;;;;;;8.68;4.10;;;7.20;74.80;;;;;;5034553;28;20371;-62
2021/04/25 01:28:58;;;;;;;7.35;3.78;;;7.20;74.50;;;;;;5034672;28;20088;-62
2021/04/25 01:31:24;;;;;;;8.27;4.00;;;7.10;74.40;;;;;;5034416;28;20283;-61
2021/04/25 01:33:50;;;;;;;8.50;4.50;;;7.10;75.00;;;;;;5034887;28;20034;-62
2021/04/25 01:36:16;;;;;;;9.90;4.25;;;7.10;75.00;;;;;;5034628;28;20437;-63
2021/04/25 01:38:41;;;;;;;8.02;4.00;;;7.10;75.30;;;;;;5033418;28;20029;-61
2021/04/25 01:41:07;;;;;;;10.43;4.85;;;7.00;75.90;;;;;;5034699;28;20038;-62
2021/04/25 01:43:33;;;;;;;9.02;4.30;;;7.00;75.90;;;;;;5034744;28;20041;-62
2021/04/25 01:45:59;;;;;;;10.23;4.70;;;6.90;76.40;;;;;;5034646;28;20026;-62
2021/04/25 01:48:25;;;;;;;8.60;4.60;;;6.90;76.80;;;;;;5034167;28;20040;-62
2021/04/25 01:50:51;;;;;;;8.68;4.63;;;6.90;76.70;;;;;;5035060;28;20510;-61
2021/04/25 01:53:16;;;;;;;11.40;5.20;;;6.80;77.10;;;;;;5034648;28;20021;-61
2021/04/25 01:55:42;;;;;;;11.43;4.90;;;6.80;77.60;;;;;;5035006;28;20017;-60
2021/04/25 01:58:10;;;;;;;10.60;5.18;;;6.70;78.00;;;;;;5034306;28;20563;-59
2021/04/25 02:00:41;;;;;;;9.98;4.88;;;6.70;78.30;;;;;;5034352;28;20030;-60
2021/04/25 02:03:09;;;;;;;15.65;5.38;;;6.60;78.90;;;;;;5034159;28;20486;-60
2021/04/25 02:05:35;;;;;;;8.90;4.47;;;6.60;79.20;;;;;;5034413;28;20032;-60
2021/04/25 02:08:01;;;;;;;13.70;5.20;;;6.60;79.40;;;;;;5033127;28;20029;-60
2021/04/25 02:10:27;;;;;;;12.27;5.70;;;6.50;79.90;;;;;;5035194;28;20404;-59
2021/04/25 02:12:53;;;;;;;11.48;6.47;;;6.50;80.30;;;;;;5034572;28;20364;-60
2021/04/25 02:15:20;;;;;;;9.85;5.85;;;6.50;80.60;;;;;;5033982;28;20096;-61
2021/04/25 02:17:46;;;;;;;12.50;5.47;;;6.50;81.10;;;;;;5034022;28;20025;-60
2021/04/25 02:20:13;;;;;;;11.32;5.97;;;6.50;81.50;;;;;;5033845;28;20075;-61
2021/04/25 02:22:39;;;;;;;16.83;6.32;;;6.50;81.60;;;;;;5033342;28;20445;-61
2021/04/25 02:25:08;;;;;;;13.40;6.68;;;6.50;81.90;;;;;;5034044;28;20026;-60
2021/04/25 02:27:34;;;;;;;12.43;6.07;;;6.50;82.20;;;;;;5033840;28;20056;-60
2021/04/25 02:30:00;;;;;;;13.05;5.70;;;6.50;82.70;;;;;;5033492;28;20505;-60
2021/04/25 02:32:25;;;;;;;14.63;6.72;;;6.40;82.90;;;;;;5033720;28;20022;-60
2021/04/25 02:34:51;;;;;;;12.07;6.93;;;6.40;83.40;;;;;;5034171;28;20056;-60
2021/04/25 02:37:17;;;;;;;10.98;6.45;;;6.40;83.90;;;;;;5032967;28;20044;-61
2021/04/25 02:39:43;;;;;;;14.85;7.20;;;6.40;84.10;;;;;;5033708;28;20037;-60
2021/04/25 02:42:08;;;;;;;14.07;7.50;;;6.30;84.70;;;;;;5033725;28;20071;-61
2021/04/25 02:44:34;;;;;;;11.43;7.00;;;6.30;84.90;;;;;;5033285;28;20107;-60
2021/04/25 02:46:59;;;;;;;16.17;7.18;;;6.30;85.40;;;;;;5034209;28;20148;-61
2021/04/25 02:49:25;;;;;;;16.00;7.40;;;6.20;85.60;;;;;;5033805;28;20040;-60
2021/04/25 02:51:51;;;;;;;16.80;7.10;;;6.20;86.10;;;;;;5033794;28;20021;-60
2021/04/25 02:54:18;;;;;;;16.52;7.45;;;6.20;86.60;;;;;;5032225;28;20120;-61
2021/04/25 02:56:43;;;;;;;13.18;7.63;;;6.20;86.70;;;;;;5033520;28;20030;-61
2021/04/25 02:59:09;;;;;;;13.27;7.13;;;6.20;87.20;;;;;;5033808;28;20033;-61
2021/04/25 03:01:35;;;;;;;16.73;7.78;;;6.20;87.40;;;;;;5033971;28;20048;-61
2021/04/25 03:04:00;;;;;;;12.88;7.10;;;6.10;87.70;;;;;;5033194;28;20033;-61
2021/04/25 03:06:26;;;;;;;14.60;7.63;;;6.10;88.10;;;;;;5033507;28;20433;-60
2021/04/25 03:08:52;;;;;;;15.75;7.15;;;6.00;88.90;;;;;;5033124;28;20017;-61
2021/04/25 03:11:17;;;;;;;15.75;7.65;;;6.00;88.90;;;;;;5031658;28;20028;-61
2021/04/25 03:13:43;;;;;;;15.07;7.50;;;6.10;89.20;;;;;;5032203;28;20070;-61
2021/04/25 03:16:08;;;;;;;13.65;7.25;;;6.00;89.30;;;;;;5032594;28;20445;-61
2021/04/25 03:18:34;;;;;;;13.55;7.32;;;6.00;89.90;;;;;;5031909;28;20425;-61
2021/04/25 03:21:00;;;;;;;15.05;7.07;;;6.00;90.10;;;;;;5033561;28;20421;-61
2021/04/25 03:23:25;;;;;;;17.10;7.07;;;6.00;90.20;;;;;;5033365;28;20025;-61
2021/04/25 03:25:51;;;;;;;15.20;7.07;;;6.00;90.80;;;;;;5033348;28;20076;-61
2021/04/25 03:28:17;;;;;;;15.27;8.13;;;5.90;90.60;;;;;;5031526;28;20087;-61
2021/04/25 03:30:43;;;;;;;14.23;7.45;;;5.90;90.70;;;;;;5032715;28;20025;-61
2021/04/25 03:33:08;;;;;;;17.95;8.48;;;6.00;90.70;;;;;;5032807;28;20077;-61
2021/04/25 03:35:34;;;;;;;13.48;7.68;;;6.00;90.70;;;;;;5032403;28;20025;-61
2021/04/25 03:38:00;;;;;;;15.70;7.82;;;6.00;90.80;;;;;;5031796;28;20028;-60
2021/04/25 03:40:25;;;;;;;13.90;8.27;;;5.90;90.90;;;;;;5032103;28;20029;-61
2021/04/25 03:42:51;;;;;;;13.73;7.78;;;5.80;91.20;;;;;;5032812;28;20033;-61
2021/04/25 03:45:18;;;;;;;13.50;7.88;;;5.90;91.30;;;;;;5033052;28;20034;-61
2021/04/25 03:47:45;;;;;;;16.58;7.72;;;5.80;91.40;;;;;;5032362;28;20037;-60
2021/04/25 03:50:12;;;;;;;14.35;7.63;;;5.80;91.50;;;;;;5031590;28;20021;-61
2021/04/25 03:52:38;;;;;;;15.70;7.15;;;5.80;91.70;;;;;;5032757;28;20081;-61
2021/04/25 03:55:05;;;;;;;17.33;7.75;;;5.70;91.80;;;;;;5032307;28;20061;-61
2021/04/25 03:57:30;;;;;;;17.30;8.13;;;5.70;91.80;;;;;;5033431;28;20052;-61
2021/04/25 03:59:56;;;;;;;20.13;7.82;;;5.60;91.90;;;;;;5030736;28;20025;-61
2021/04/25 04:02:22;;;;;;;13.30;7.22;;;5.60;92.10;;;;;;5032977;28;20022;-61
2021/04/25 04:04:47;;;;;;;14.63;7.75;;;5.60;92.10;;;;;;5032714;28;20108;-61
2021/04/25 04:07:16;;;;;;;14.93;8.05;;;5.60;92.20;;;;;;5032963;28;20076;-61
2021/04/25 04:09:42;;;;;;;14.25;8.05;;;5.60;92.40;;;;;;5032781;28;20030;-61
2021/04/25 04:12:12;;;;;;;15.60;7.68;;;5.60;92.40;;;;;;5031684;28;20037;-60
2021/04/25 04:14:37;;;;;;;14.13;7.68;;;5.60;92.40;;;;;;5032680;28;20029;-61
2021/04/25 04:17:03;;;;;;;17.77;8.27;;;5.60;92.90;;;;;;5032530;28;20032;-61
2021/04/25 04:19:28;;;;;;;12.10;7.38;;;5.60;92.50;;;;;;5033340;28;20467;-60
2021/04/25 04:21:54;;;;;;;14.70;7.93;;;5.60;92.70;;;;;;5036376;28;20048;-61
2021/04/25 04:24:20;;;;;;;14.90;8.00;;;5.60;92.90;;;;;;5036557;28;20057;-61
2021/04/25 04:26:45;;;;;;;14.45;8.00;;;5.60;92.70;;;;;;5034862;28;20025;-60
2021/04/25 04:29:11;;;;;;;15.10;8.40;;;5.60;92.80;;;;;;5034287;28;20183;-61
2021/04/25 04:31:36;;;;;;;13.95;7.93;;;5.60;92.90;;;;;;5036271;28;20033;-60
2021/04/25 04:34:02;;;;;;;14.93;7.75;;;5.60;92.90;;;;;;5035451;28;20380;-60
2021/04/25 04:36:28;;;;;;;19.77;8.38;;;5.60;93.00;;;;;;5036262;28;20051;-60
2021/04/25 04:38:53;;;;;;;19.48;8.27;;;5.60;93.10;;;;;;5034695;28;20029;-60
2021/04/25 04:41:19;;;;;;;17.70;8.63;;;5.60;93.10;;;;;;5035940;28;20030;-60
2021/04/25 04:43:45;;;;;;;16.58;8.30;;;5.50;93.40;;;;;;5034510;28;20029;-60
2021/04/25 04:46:10;;;;;;;17.17;8.63;;;5.40;93.80;;;;;;5035997;28;20021;-60
2021/04/25 04:48:36;;;;;;;15.50;8.55;;;5.30;94.10;;;;;;5034337;28;20513;-61
2021/04/25 04:51:01;;;;;;;21.85;8.68;;;5.40;94.40;;;;;;5035692;28;20061;-60
2021/04/25 04:53:27;;;;;;;15.82;8.65;;;5.40;94.10;;;;;;5034253;28;20029;-60
2021/04/25 04:55:52;;;;;;;22.67;8.85;;;5.40;94.20;;;;;;5035382;28;20043;-60
2021/04/25 04:58:18;;;;;;;16.65;8.77;;;5.40;94.30;;;;;;5035643;28;20099;-60
2021/04/25 05:00:44;;;;;;;20.48;9.95;;;5.30;94.70;;;;;;5035847;28;20383;-60
2021/04/25 05:03:09;;;;;;;16.73;8.98;;;5.30;94.70;;;;;;5035633;28;20108;-60
2021/04/25 05:05:35;;;;;;;15.55;8.98;;;5.30;94.80;;;;;;5035886;28;20318;-60
2021/04/25 05:08:01;;;;;;;19.40;9.23;;;5.30;95.00;;;;;;5035796;28;20033;-60
2021/04/25 05:10:26;;;;;;;18.08;8.60;;;5.30;94.90;;;;;;5035307;28;20037;-60
2021/04/25 05:12:52;;;;;;;19.15;8.98;;;5.40;95.00;;;;;;5035375;28;20057;-60
2021/04/25 05:15:18;;;;;;;17.75;9.45;;;5.30;95.10;;;;;;5035701;28;20030;-60
2021/04/25 05:17:43;;;;;;;16.73;8.43;;;5.40;95.10;;;;;;5036094;28;20355;-60
2021/04/25 05:20:10;;;;;;;18.15;8.70;;;5.50;95.00;;;;;;5034619;28;20371;-61
2021/04/25 05:22:35;;;;;;;16.27;8.48;;;5.50;94.80;;;;;;5036072;28;20022;-61
2021/04/25 05:25:01;;;;;;;22.95;9.25;;;5.50;94.60;;;;;;5036115;28;20034;-61
2021/04/25 05:27:27;;;;;;;16.08;8.30;;;5.60;94.40;;;;;;5035144;28;20030;-61
2021/04/25 05:29:52;;;;;;;14.95;8.02;;;5.60;94.50;;;;;;5035647;28;20048;-61
2021/04/25 05:32:18;;;;;;;19.45;8.60;;;5.70;94.40;;;;;;5035385;28;20029;-61
2021/04/25 05:34:44;;;;;;;15.85;8.25;;;5.80;94.20;;;;;;5034553;28;20030;-62
2021/04/25 05:37:09;;;;;;;16.48;7.93;;;5.80;94.10;;;;;;5035858;28;20018;-61
2021/04/25 05:39:35;;;;;;;17.40;8.68;;;5.80;93.90;;;;;;5035595;28;20040;-62
2021/04/25 05:42:01;;;;;;;15.57;8.80;;;6.00;93.70;;;;;;5035215;28;20037;-61
2021/04/25 05:44:27;;;;;;;14.52;8.13;;;6.10;93.40;;;;;;5034163;28;20518;-61
2021/04/25 05:46:54;;;;;;;17.77;7.97;;;6.00;93.20;;;;;;5035525;28;20041;-61
2021/04/25 05:49:20;;;;;;;15.82;7.78;;;6.00;93.30;;;;;;5035782;28;20030;-61
2021/04/25 05:51:46;;;;;;;18.27;8.18;;;6.00;93.10;;;;;;5035255;28;20036;-61
2021/04/25 05:54:12;;;;;;;13.25;7.75;;;6.00;93.00;;;;;;5034728;28;20041;-61
2021/04/25 05:56:37;;;;;;;20.17;8.63;;;6.00;93.00;;;;;;5033817;28;20437;-61
2021/04/25 05:59:03;;;;;;;15.20;7.80;;;6.00;93.10;;;;;;5034332;28;20498;-61
2021/04/25 06:01:29;;;;;;;17.98;8.35;;;6.10;93.30;;;;;;5034847;28;20083;-61
2021/04/25 06:03:55;;;;;;;15.65;8.05;;;6.20;92.80;;;;;;5035303;28;20032;-61
2021/04/25 06:06:20;;;;;;;14.65;7.22;;;6.30;92.60;;;;;;5034942;28;20029;-61
2021/04/25 06:08:46;;;;;;;15.95;7.43;;;6.40;92.40;;;;;;5033328;28;20025;-61
2021/04/25 06:11:12;;;;;;;15.15;6.97;;;6.40;92.10;;;;;;5034913;28;20443;-61
2021/04/25 06:13:37;;;;;;;16.50;7.35;;;6.50;91.80;;;;;;5034893;28;20357;-61
2021/04/25 06:16:03;;;;;;;13.13;6.20;;;6.50;91.40;;;;;;5034603;28;20053;-61
2021/04/25 06:18:29;;;;;;;12.75;6.68;;;6.60;91.10;;;;;;5033979;28;20524;-62
2021/04/25 06:20:55;;;;;;;12.75;6.40;;;6.70;91.10;;;;;;5034936;28;20049;-61
2021/04/25 06:23:21;;;;;;;15.23;6.38;;;6.80;90.70;;;;;;5034609;28;20390;-61
2021/04/25 06:25:46;;;;;;;13.23;6.10;;;7.00;90.60;;;;;;5034755;28;20463;-62
2021/04/25 06:28:13;;;;;;;13.90;6.53;;;7.10;89.90;;;;;;5034153;28;20485;-61
2021/04/25 06:30:39;;;;;;;11.13;6.43;;;6.90;89.70;;;;;;5034866;28;20026;-62
2021/04/25 06:33:04;;;;;;;15.48;6.30;;;6.80;90.40;;;;;;5034649;28;20075;-61
2021/04/25 06:35:30;;;;;;;13.27;6.85;;;6.80;90.40;;;;;;5034663;28;20029;-60
2021/04/25 06:37:56;;;;;;;14.85;5.97;;;7.00;90.50;;;;;;5035778;28;20116;-61
2021/04/25 06:40:21;;;;;;;14.10;7.00;;;7.00;89.40;;;;;;5034105;28;20420;-61
2021/04/25 06:42:47;;;;;;;17.45;7.57;;;7.10;89.60;;;;;;5034229;28;20059;-61
2021/04/25 06:45:16;;;;;;;16.00;6.65;;;7.30;89.90;;;;;;5033761;28;20021;-61
2021/04/25 06:47:42;;;;;;;17.05;6.30;;;7.40;88.90;;;;;;5033698;28;20029;-61
2021/04/25 06:50:11;;;;;;;13.43;5.85;;;7.50;87.70;;;;;;5034116;28;20035;-62
2021/04/25 06:52:42;;;;;;;12.73;6.18;;;7.60;86.60;;;;;;5034942;28;20096;-61
2021/04/25 06:55:10;;;;;;;16.50;6.30;;;7.70;86.30;;;;;;5034656;28;20384;-62
2021/04/25 06:57:35;;;;;;;12.02;5.53;;;7.90;86.20;;;;;;5034495;28;20056;-61
2021/04/25 07:00:03;;;;;;;12.57;5.70;;;7.90;84.80;;;;;;5034573;28;20084;-62
2021/04/25 07:02:28;;;;;;;12.23;6.13;;;7.90;84.60;;;;;;5049092;28;20029;-61
2021/04/25 07:04:54;;;;;;;12.63;5.13;;;8.00;84.60;;;;;;5034596;28;20039;-62
2021/04/25 07:07:19;;;;;;;11.82;5.22;;;8.00;83.20;;;;;;5032159;28;20064;-61
2021/04/25 07:09:45;;;;;;;11.55;5.18;;;8.00;83.90;;;;;;5034425;28;20068;-62
2021/04/25 07:12:11;;;;;;;9.52;4.63;;;8.30;83.00;;;;;;5031336;28;20025;-62
2021/04/25 07:14:36;;;;;;;14.70;4.78;;;8.80;79.20;;;;;;5032716;28;20018;-62
2021/04/25 07:17:02;;;;;;;10.20;4.63;;;8.90;78.60;;;;;;5032646;28;20052;-62
2021/04/25 07:19:30;;;;;;;7.82;4.18;;;9.00;77.90;;;;;;5032463;28;20024;-61
2021/04/25 07:21:56;;;;;;;12.80;4.53;;;9.00;77.90;;;;;;5033028;28;20025;-61
2021/04/25 07:24:21;;;;;;;12.90;4.75;;;9.40;76.50;;;;;;5030475;28;20530;-61
2021/04/25 07:26:47;;;;;;;10.75;4.05;;;10.60;73.90;;;;;;5031292;28;20034;-61
2021/04/25 07:29:14;;;;;;;16.40;4.88;;;11.90;68.30;;;;;;5029555;28;20053;-61
2021/04/25 07:31:41;;;;;;;13.93;5.10;;;12.30;63.90;;;;;;5031920;28;20075;-61
2021/04/25 07:34:06;;;;;;;7.03;3.92;;;12.30;64.20;;;;;;5032195;28;20108;-61
2021/04/25 07:36:32;;;;;;;10.88;4.20;;;11.80;64.00;;;;;;5030480;28;20056;-61
2021/04/25 07:38:57;;;;;;;8.75;4.32;;;11.30;66.40;;;;;;5031601;28;20041;-61
2021/04/25 07:41:23;;;;;;;6.75;3.70;;;11.70;65.90;;;;;;5031700;28;20479;-61
2021/04/25 07:43:49;;;;;;;7.65;3.50;;;12.40;63.10;;;;;;5031253;28;20040;-61
2021/04/25 07:46:16;;;;;;;7.60;4.25;;;13.50;59.60;;;;;;5030651;28;20029;-61
2021/04/25 07:48:42;;;;;;;10.48;4.10;;;14.00;58.30;;;;;;5031835;28;20510;-61
2021/04/25 07:51:07;;;;;;;8.27;3.90;;;14.30;55.90;;;;;;5031525;28;20021;-61
2021/04/25 07:53:33;;;;;;;6.53;4.03;;;13.60;56.90;;;;;;5032398;28;20482;-62
2021/04/25 07:55:59;;;;;;;8.27;3.90;;;13.80;57.40;;;;;;5034454;28;20120;-62
2021/04/25 07:58:25;;;;;;;6.15;3.80;;;13.50;57.60;;;;;;5035106;28;20075;-63
2021/04/25 08:00:51;;;;;;;10.80;4.03;;;13.20;57.60;;;;;;5034649;28;20044;-62
2021/04/25 08:03:16;;;;;;;7.80;3.83;;;12.70;57.70;;;;;;5035319;28;20060;-62
2021/04/25 08:05:42;;;;;;;11.68;4.13;;;12.40;59.60;;;;;;5034086;28;20025;-62
2021/04/25 08:08:08;;;;;;;8.13;4.13;;;12.30;59.70;;;;;;5035177;28;20033;-62
2021/04/25 08:10:33;;;;;;;6.53;3.83;;;12.40;58.70;;;;;;5034482;28;20340;-62
2021/04/25 08:12:59;;;;;;;13.35;4.32;;;12.60;59.00;;;;;;5033768;28;20476;-63
2021/04/25 08:15:25;;;;;;;4.97;3.38;;;13.40;57.10;;;;;;5035397;28;20039;-62
2021/04/25 08:17:51;;;;;;;7.32;3.38;;;14.20;55.00;;;;;;5034198;28;20103;-63
2021/04/25 08:20:18;;;;;;;8.05;3.78;;;15.30;54.00;;;;;;5033641;28;20112;-63
2021/04/25 08:22:43;;;;;;;7.45;3.30;;;16.00;51.20;;;;;;5034045;28;20026;-63
2021/04/25 08:25:10;;;;;;;7.93;3.60;;;16.30;50.90;;;;;;5033532;28;20104;-63
2021/04/25 08:27:35;;;;;;;7.30;3.55;;;16.40;50.70;;;;;;5032299;28;20022;-63
2021/04/25 08:30:01;;;;;;;8.77;3.83;;;15.90;50.20;;;;;;5033571;28;20561;-63
2021/04/25 08:32:26;;;;;;;6.47;4.00;;;14.80;51.70;;;;;;5034711;28;20025;-62
2021/04/25 08:34:52;;;;;;;11.65;4.40;;;13.70;54.10;;;;;;5034759;28;20091;-63
2021/04/25 08:37:17;;;;;;;8.13;3.90;;;14.30;53.40;;;;;;5034833;28;20029;-62
2021/04/25 08:39:43;;;;;;;6.00;3.70;;;14.50;53.90;;;;;;5034407;28;20604;-62
2021/04/25 08:42:13;;;;;;;7.45;4.13;;;14.00;53.50;;;;;;5034346;28;20357;-63
2021/04/25 08:44:41;;;;;;;10.65;4.03;;;13.50;54.30;;;;;;5033079;28;20501;-63
2021/04/25 08:47:07;;;;;;;12.88;3.95;;;13.30;56.50;;;;;;5034145;28;20029;-63
2021/04/25 08:49:34;;;;;;;10.68;4.05;;;13.60;55.60;;;;;;5033458;28;20489;-63
2021/04/25 08:52:00;;;;;;;10.05;4.13;;;13.70;55.60;;;;;;5034087;28;20492;-63
2021/04/25 08:54:26;;;;;;;11.77;4.25;;;14.20;54.10;;;;;;5032310;28;20028;-62
2021/04/25 08:56:55;;;;;;;8.65;3.92;;;13.80;54.20;;;;;;5034597;28;20025;-62
2021/04/25 08:59:21;;;;;;;9.13;3.95;;;13.90;54.30;;;;;;5032874;28;20435;-62
2021/04/25 09:01:47;;;;;;;10.07;4.13;;;13.70;55.30;;;;;;5033229;28;20025;-62
2021/04/25 09:04:13;;;;;;;12.88;4.68;;;13.80;55.20;;;;;;5032711;28;20075;-62
2021/04/25 09:07:05;;;;;;;12.15;3.85;;;14.00;54.90;;;;;;5031594;28;20029;-63
2021/04/25 09:09:59;;;;;;;8.07;4.43;;;14.60;53.20;;;;;;5033444;28;20025;-63
2021/04/25 09:12:39;;;;;;;8.20;3.83;;;14.30;54.20;;;;;;5033245;28;20025;-63
2021/04/25 09:15:11;;;;;;;7.93;3.83;;;14.70;54.20;;;;;;5033222;28;20021;-63
2021/04/25 09:17:52;;;;;;;8.57;4.00;;;15.10;54.10;;;;;;5032626;28;20032;-63
2021/04/25 09:20:29;;;;;;;6.05;3.95;;;16.60;51.40;;;;;;5031262;28;20371;-63
2021/04/25 09:22:55;;;;;;;6.85;4.00;;;17.30;49.30;;;;;;5032751;28;20064;-63
2021/04/25 09:25:21;;;;;;;8.57;4.32;;;17.60;48.60;;;;;;5032384;28;20057;-63
2021/04/25 09:27:48;;;;;;;8.57;4.20;;;17.80;47.60;;;;;;5032594;28;20028;-63
2021/04/25 09:30:34;;;;;;;6.85;4.10;;;16.90;48.40;;;;;;5032241;28;20517;-63
2021/04/25 09:33:04;;;;;;;6.53;4.25;;;15.40;50.60;;;;;;5032970;28;20037;-63
2021/04/25 09:35:31;;;;;;;10.18;4.20;;;15.50;51.50;;;;;;5032333;28;20490;-63
2021/04/25 09:37:57;;;;;;;8.65;4.43;;;15.70;50.90;;;;;;5032324;28;20387;-63
2021/04/25 09:40:25;;;;;;;5.88;3.67;;;15.80;51.30;;;;;;5030859;28;20025;-63
2021/04/25 09:43:06;;;;;;;8.77;4.00;;;16.00;49.80;;;;;;5032249;28;20496;-63
2021/04/25 09:45:44;;;;;;;8.63;3.90;;;16.40;50.50;;;;;;5032090;28;20048;-63
2021/04/25 09:48:31;;;;;;;8.55;4.43;;;17.10;49.30;;;;;;5032053;28;20029;-63
2021/04/25 09:51:14;;;;;;;7.20;3.83;;;16.90;48.80;;;;;;5031969;28;20030;-63
2021/04/25 09:53:43;;;;;;;8.85;3.95;;;17.10;49.20;;;;;;5030357;28;20115;-63
2021/04/25 09:56:09;;;;;;;10.02;3.63;;;17.00;48.60;;;;;;5019653;28;20109;-63
2021/04/25 09:58:58;;;;;;;11.30;4.30;;;17.10;48.80;;;;;;5022181;28;20042;-63
2021/04/25 10:01:34;;;;;;;7.07;4.15;;;17.40;48.90;;;;;;5023129;28;20390;-63
2021/04/25 10:04:02;;;;;;;10.90;4.07;;;17.20;47.70;;;;;;5019170;28;20033;-62
2021/04/25 10:06:29;;;;;;;8.65;3.95;;;16.30;49.40;;;;;;5021026;28;20052;-63
2021/04/25 10:08:55;;;;;;;10.52;4.68;;;16.10;49.90;;;;;;5020790;28;20080;-63
2021/04/25 10:11:23;;;;;;;5.63;3.80;;;16.80;49.20;;;;;;5019674;28;20025;-63
2021/04/25 10:13:48;;;;;;;5.85;3.13;;;17.10;48.30;;;;;;5016138;28;20029;-63
2021/04/25 10:16:20;;;;;;;6.18;4.03;;;17.20;48.10;;;;;;5010271;28;20076;-63
2021/04/25 10:18:46;;;;;;;9.27;4.65;;;17.50;48.60;;;;;;5009128;28;20030;-63
2021/04/25 10:21:12;;;;;;;8.75;4.30;;;17.90;46.60;;;;;;5030750;28;20429;-62
2021/04/25 10:23:38;;;;;;;10.82;4.53;;;17.60;47.30;;;;;;5031728;28;20032;-63
2021/04/25 10:26:16;;;;;;;7.90;4.60;;;17.10;48.40;;;;;;5033278;28;20029;-63
2021/04/25 10:28:51;;;;;;;12.98;4.57;;;16.60;49.50;;;;;;5031235;28;20056;-63
2021/04/25 10:31:35;;;;;;;9.95;4.45;;;16.70;49.90;;;;;;5031371;28;20022;-63
2021/04/25 10:34:06;;;;;;;7.80;4.30;;;17.00;49.20;;;;;;5029811;28;20433;-63
2021/04/25 10:36:44;;;;;;;11.48;4.15;;;17.20;48.30;;;;;;5031429;28;20045;-63
2021/04/25 10:39:53;;;;;;;9.85;4.20;;;16.70;48.60;;;;;;5030942;28;20029;-64
2021/04/25 10:42:29;;;;;;;9.10;4.40;;;17.50;48.10;;;;;;5031103;28;20080;-64
2021/04/25 10:45:05;;;;;;;7.95;4.22;;;17.80;47.40;;;;;;5030899;28;20108;-64
2021/04/25 10:47:32;;;;;;;10.40;4.10;;;17.70;47.70;;;;;;5031411;28;20021;-64
2021/04/25 10:50:00;;;;;;;6.90;3.72;;;17.10;48.00;;;;;;5030904;28;20482;-64
2021/04/25 10:52:30;;;;;;;5.88;4.25;;;17.40;47.70;;;;;;5030906;28;20045;-64
2021/04/25 10:55:15;;;;;;;7.20;3.42;;;18.00;47.10;;;;;;5029426;28;20490;-64
2021/04/25 10:58:01;;;;;;;7.90;3.60;;;17.40;46.60;;;;;;5029564;28;20494;-64
2021/04/25 11:00:33;;;;;;;7.65;3.97;;;17.70;46.40;;;;;;5029802;28;20044;-64
2021/04/25 11:03:00;;;;;;;6.27;3.50;;;17.90;45.20;;;;;;5031174;28;20064;-63
2021/04/25 11:05:46;;;;;;;6.95;3.40;;;16.90;46.30;;;;;;5030033;28;20371;-63
2021/04/25 11:08:15;;;;;;;7.93;3.53;;;17.10;48.40;;;;;;5029747;28;20036;-63
2021/04/25 11:10:58;;;;;;;10.55;4.40;;;16.90;47.30;;;;;;5031258;28;20017;-63
2021/04/25 11:13:36;;;;;;;9.60;4.18;;;17.20;48.00;;;;;;5030970;28;20029;-64
2021/04/25 11:16:03;;;;;;;6.82;3.45;;;17.70;45.90;;;;;;5031141;28;20017;-64
2021/04/25 11:18:51;;;;;;;9.02;3.40;;;17.20;47.00;;;;;;5030543;28;20057;-64
2021/04/25 11:21:26;;;;;;;11.25;3.60;;;17.90;46.30;;;;;;5029535;28;20032;-64
2021/04/25 11:24:02;;;;;;;7.20;3.80;;;18.20;45.90;;;;;;5030503;28;20137;-64
2021/04/25 11:26:40;;;;;;;7.07;3.22;;;18.40;45.10;;;;;;5030735;28;20410;-64
2021/04/25 11:29:20;;;;;;;10.05;3.92;;;18.70;45.20;;;;;;5031692;28;20100;-64
2021/04/25 11:31:55;;;;;;;8.57;3.78;;;19.20;44.30;;;;;;5034827;28;20025;-64
2021/04/25 11:34:27;;;;;;;9.23;3.58;;;18.40;45.00;;;;;;5034581;28;20018;-64
2021/04/25 11:37:16;;;;;;;7.78;3.97;;;18.50;44.70;;;;;;5033704;28;20033;-64
2021/04/25 11:39:45;;;;;;;8.60;3.83;;;18.20;45.80;;;;;;5034539;28;20382;-64
2021/04/25 11:42:22;;;;;;;8.98;3.65;;;19.20;43.10;;;;;;5034462;28;20057;-64
2021/04/25 11:44:48;;;;;;;7.60;3.95;;;19.60;43.10;;;;;;5034265;28;20108;-64
2021/04/25 11:47:15;;;;;;;10.65;4.03;;;20.30;41.20;;;;;;5034432;28;20458;-64
2021/04/25 11:49:48;;;;;;;10.68;4.05;;;19.70;42.30;;;;;;5034085;28;20037;-64
2021/04/25 11:52:15;;;;;;;6.65;4.05;;;19.60;42.50;;;;;;5034210;28;20022;-64
2021/04/25 11:55:02;;;;;;;6.13;3.88;;;19.30;42.70;;;;;;5034080;28;20032;-64
2021/04/25 11:57:30;;;;;;;8.85;3.80;;;19.10;43.40;;;;;;5034073;28;20056;-64
2021/04/25 12:00:00;;;;;;;11.18;3.80;;;19.00;42.80;;;;;;5033009;28;20086;-64
2021/04/25 12:02:31;;;;;;;8.23;3.80;;;19.00;41.70;;;;;;5034314;28;20386;-64
2021/04/25 12:05:04;;;;;;;8.15;3.70;;;18.70;43.00;;;;;;5034027;28;20027;-64
2021/04/25 12:07:34;;;;;;;9.95;3.88;;;18.80;42.60;;;;;;5034114;28;20036;-64
2021/04/25 12:10:01;;;;;;;11.50;4.57;;;19.70;42.60;;;;;;5032487;28;20029;-63
2021/04/25 12:12:26;;;;;;;12.98;4.65;;;19.70;40.90;;;;;;5033979;28;20026;-63
2021/04/25 12:15:03;;;;;;;9.23;4.18;;;19.20;42.20;;;;;;5034018;28;20077;-63
2021/04/25 12:17:30;;;;;;;20.77;4.63;;;18.50;42.90;;;;;;5032516;28;20041;-63
2021/04/25 12:19:58;;;;;;;12.20;3.90;;;18.90;42.40;;;;;;5033637;28;20021;-63
2021/04/25 12:22:23;;;;;;;12.30;4.68;;;18.90;42.80;;;;;;5033621;28;20048;-63
2021/04/25 12:24:54;;;;;;;8.23;3.83;;;19.20;42.50;;;;;;5033652;28;20033;-63
2021/04/25 12:27:20;;;;;;;6.50;4.05;;;18.70;42.40;;;;;;5034075;28;20032;-63
2021/04/25 12:29:48;;;;;;;9.85;4.30;;;18.90;43.20;;;;;;5033305;28;20441;-64
2021/04/25 12:32:21;;;;;;;7.55;3.60;;;19.80;41.80;;;;;;5032257;28;20018;-64
2021/04/25 12:35:03;;;;;;;10.85;4.38;;;20.40;40.10;;;;;;5033682;28;20022;-64
2021/04/25 12:37:43;;;;;;;6.20;3.97;;;20.20;40.40;;;;;;5033730;28;20026;-64
2021/04/25 12:40:32;;;;;;;5.95;3.88;;;20.00;40.30;;;;;;5032451;28;20674;-64
2021/04/25 12:43:14;;;;;;;8.07;4.53;;;20.40;40.10;;;;;;5033269;28;20468;-63
2021/04/25 12:45:43;;;;;;;7.93;4.18;;;19.40;42.00;;;;;;5033321;28;20107;-63
2021/04/25 12:48:30;;;;;;;8.50;4.05;;;19.50;41.90;;;;;;5032977;28;20085;-63
2021/04/25 12:51:06;;;;;;;10.00;4.32;;;19.20;43.50;;;;;;5031836;28;20167;-64
2021/04/25 12:53:42;;;;;;;7.00;3.90;;;18.60;42.50;;;;;;5031629;28;20498;-63